sensor_id;sensor_type;location;lat;lon;timestamp;pressure;altitude;pressure_sealevel;temperature;humidity
36664;BME280;53333;51.976;20.144;2022-11-30T00:04:14;101281.03;;;1.45;68.62
36664;BME280;53333;51.976;20.144;2022-11-30T00:06:53;101291.56;;;1.42;68.63
36664;BME280;53333;51.976;20.144;2022-11-30T00:09:38;101293.25;;;1.40;68.85
36664;BME280;53333;51.976;20.144;2022-11-30T00:12:21;101284.53;;;1.43;68.59
36664;BME280;53333;51.976;20.144;2022-11-30T00:15:10;101282.75;;;1.43;68.52
36664;BME280;53333;51.976;20.144;2022-11-30T00:18:07;101281.88;;;1.43;68.49
36664;BME280;53333;51.976;20.144;2022-11-30T00:20:49;101286.28;;;1.42;68.51
36664;BME280;53333;51.976;20.144;2022-11-30T00:23:42;101288.91;;;1.41;68.50
36664;BME280;53333;51.976;20.144;2022-11-30T00:26:34;101295.91;;;1.42;68.55
36664;BME280;53333;51.976;20.144;2022-11-30T00:29:19;101296.78;;;1.39;68.58
36664;BME280;53333;51.976;20.144;2022-11-30T00:32:04;101288.03;;;1.39;68.59
36664;BME280;53333;51.976;20.144;2022-11-30T00:34:48;101288.06;;;1.51;68.27
36664;BME280;53333;51.976;20.144;2022-11-30T00:37:33;101289.78;;;1.43;68.40
36664;BME280;53333;51.976;20.144;2022-11-30T00:40:25;101294.19;;;1.42;68.43
36664;BME280;53333;51.976;20.144;2022-11-30T00:43:18;101288.91;;;1.42;68.41
36664;BME280;53333;51.976;20.144;2022-11-30T00:46:35;101289.81;;;1.46;68.53
36664;BME280;53333;51.976;20.144;2022-11-30T00:49:22;101289.78;;;1.41;68.57
36664;BME280;53333;51.976;20.144;2022-11-30T00:52:18;101288.94;;;1.44;68.20
36664;BME280;53333;51.976;20.144;2022-11-30T00:55:02;101296.81;;;1.44;68.47
36664;BME280;53333;51.976;20.144;2022-11-30T00:57:42;101297.72;;;1.46;68.51
36664;BME280;53333;51.976;20.144;2022-11-30T01:00:24;101292.44;;;1.46;68.50
36664;BME280;53333;51.976;20.144;2022-11-30T01:03:04;101301.22;;;1.48;68.53
36664;BME280;53333;51.976;20.144;2022-11-30T01:05:41;101291.59;;;1.49;68.54
36664;BME280;53333;51.976;20.144;2022-11-30T01:08:48;101293.34;;;1.50;68.46
36664;BME280;53333;51.976;20.144;2022-11-30T01:11:42;101289.84;;;1.51;68.68
36664;BME280;53333;51.976;20.144;2022-11-30T01:14:50;101299.53;;;1.55;68.42
36664;BME280;53333;51.976;20.144;2022-11-30T01:18:02;101289.84;;;1.52;68.50
36664;BME280;53333;51.976;20.144;2022-11-30T01:20:49;101289.88;;;1.54;68.56
36664;BME280;53333;51.976;20.144;2022-11-30T01:23:40;101296.91;;;1.55;68.37
36664;BME280;53333;51.976;20.144;2022-11-30T01:26:41;101299.53;;;1.53;68.27
36664;BME280;53333;51.976;20.144;2022-11-30T01:29:40;101303.03;;;1.55;68.55
36664;BME280;53333;51.976;20.144;2022-11-30T01:32:23;101298.66;;;1.56;68.49
36664;BME280;53333;51.976;20.144;2022-11-30T01:35:15;101303.06;;;1.58;68.42
36664;BME280;53333;51.976;20.144;2022-11-30T01:38:08;101300.41;;;1.57;68.28
36664;BME280;53333;51.976;20.144;2022-11-30T01:40:49;101305.69;;;1.55;68.36
36664;BME280;53333;51.976;20.144;2022-11-30T01:43:40;101308.31;;;1.57;68.38
36664;BME280;53333;51.976;20.144;2022-11-30T01:46:31;101317.09;;;1.59;68.50
36664;BME280;53333;51.976;20.144;2022-11-30T01:49:15;101313.59;;;1.57;68.39
36664;BME280;53333;51.976;20.144;2022-11-30T01:51:56;101312.69;;;1.52;68.46
36664;BME280;53333;51.976;20.144;2022-11-30T01:54:33;101320.56;;;1.50;68.55
36664;BME280;53333;51.976;20.144;2022-11-30T01:57:13;101316.16;;;1.48;68.47
36664;BME280;53333;51.976;20.144;2022-11-30T01:59:52;101315.25;;;1.44;68.55
36664;BME280;53333;51.976;20.144;2022-11-30T02:02:31;101316.13;;;1.44;68.42
36664;BME280;53333;51.976;20.144;2022-11-30T02:05:10;101308.22;;;1.44;68.43
36664;BME280;53333;51.976;20.144;2022-11-30T02:07:47;101311.72;;;1.43;68.28
36664;BME280;53333;51.976;20.144;2022-11-30T02:10:22;101312.63;;;1.45;68.59
36664;BME280;53333;51.976;20.144;2022-11-30T02:16:18;101323.19;;;1.49;68.46
36664;BME280;53333;51.976;20.144;2022-11-30T02:19:04;101319.66;;;1.47;68.59
36664;BME280;53333;51.976;20.144;2022-11-30T02:21:48;101323.19;;;1.47;68.59
36664;BME280;53333;51.976;20.144;2022-11-30T02:24:44;101310.91;;;1.51;68.54
36664;BME280;53333;51.976;20.144;2022-11-30T02:27:38;101320.56;;;1.50;68.54
36664;BME280;53333;51.976;20.144;2022-11-30T02:30:18;101323.19;;;1.49;68.50
36664;BME280;53333;51.976;20.144;2022-11-30T02:32:58;101323.19;;;1.47;68.37
36664;BME280;53333;51.976;20.144;2022-11-30T02:35:42;101322.31;;;1.50;68.52
36664;BME280;53333;51.976;20.144;2022-11-30T02:38:23;101326.72;;;1.51;68.34
36664;BME280;53333;51.976;20.144;2022-11-30T02:40:58;101322.31;;;1.51;68.37
36664;BME280;53333;51.976;20.144;2022-11-30T02:43:35;101319.69;;;1.53;68.39
36664;BME280;53333;51.976;20.144;2022-11-30T02:46:19;101324.97;;;1.54;68.34
36664;BME280;53333;51.976;20.144;2022-11-30T02:48:58;101319.69;;;1.53;68.44
36664;BME280;53333;51.976;20.144;2022-11-30T02:51:37;101319.69;;;1.53;68.49
36664;BME280;53333;51.976;20.144;2022-11-30T02:54:12;101325.00;;;1.56;68.44
36664;BME280;53333;51.976;20.144;2022-11-30T02:56:48;101317.09;;;1.57;68.33
36664;BME280;53333;51.976;20.144;2022-11-30T02:59:22;101320.59;;;1.56;68.42
36664;BME280;53333;51.976;20.144;2022-11-30T03:01:59;101325.00;;;1.57;68.52
36664;BME280;53333;51.976;20.144;2022-11-30T03:04:36;101318.88;;;1.58;68.50
36664;BME280;53333;51.976;20.144;2022-11-30T03:07:09;101317.09;;;1.59;68.30
36664;BME280;53333;51.976;20.144;2022-11-30T03:09:43;101331.16;;;1.61;68.29
36664;BME280;53333;51.976;20.144;2022-11-30T03:12:16;101325.03;;;1.63;68.31
36664;BME280;53333;51.976;20.144;2022-11-30T03:14:52;101331.19;;;1.64;68.38
36664;BME280;53333;51.976;20.144;2022-11-30T03:17:26;101323.34;;;1.75;68.14
36664;BME280;53333;51.976;20.144;2022-11-30T03:20:00;101335.63;;;1.68;68.07
36664;BME280;53333;51.976;20.144;2022-11-30T03:22:34;101332.97;;;1.68;68.17
36664;BME280;53333;51.976;20.144;2022-11-30T03:25:08;101328.56;;;1.69;68.04
36664;BME280;53333;51.976;20.144;2022-11-30T03:27:41;101344.41;;;1.72;68.23
36664;BME280;53333;51.976;20.144;2022-11-30T03:30:18;101338.28;;;1.71;68.25
36664;BME280;53333;51.976;20.144;2022-11-30T03:32:53;101337.38;;;1.72;68.16
36664;BME280;53333;51.976;20.144;2022-11-30T03:35:26;101342.66;;;1.72;68.03
36664;BME280;53333;51.976;20.144;2022-11-30T03:38:00;101343.53;;;1.70;68.25
36664;BME280;53333;51.976;20.144;2022-11-30T03:40:35;101351.44;;;1.70;67.98
36664;BME280;53333;51.976;20.144;2022-11-30T03:43:08;101354.94;;;1.69;68.24
36664;BME280;53333;51.976;20.144;2022-11-30T03:45:44;101361.09;;;1.68;68.24
36664;BME280;53333;51.976;20.144;2022-11-30T03:48:19;101355.81;;;1.69;68.21
36664;BME280;53333;51.976;20.144;2022-11-30T03:50:52;101356.69;;;1.68;68.20
36664;BME280;53333;51.976;20.144;2022-11-30T03:53:26;101355.81;;;1.66;68.23
36664;BME280;53333;51.976;20.144;2022-11-30T03:56:02;101358.44;;;1.65;68.20
36664;BME280;53333;51.976;20.144;2022-11-30T03:58:36;101353.16;;;1.63;68.09
36664;BME280;53333;51.976;20.144;2022-11-30T04:01:12;101362.78;;;1.62;68.29
36664;BME280;53333;51.976;20.144;2022-11-30T04:03:47;101357.50;;;1.61;68.02
36664;BME280;53333;51.976;20.144;2022-11-30T04:06:21;101361.06;;;1.65;68.23
36664;BME280;53333;51.976;20.144;2022-11-30T04:08:57;101355.81;;;1.66;67.96
36664;BME280;53333;51.976;20.144;2022-11-30T04:11:30;101357.53;;;1.66;68.17
36664;BME280;53333;51.976;20.144;2022-11-30T04:14:04;101366.34;;;1.66;68.11
36664;BME280;53333;51.976;20.144;2022-11-30T04:16:38;101366.31;;;1.65;67.97
36664;BME280;53333;51.976;20.144;2022-11-30T04:19:13;101361.06;;;1.63;67.96
36664;BME280;53333;51.976;20.144;2022-11-30T04:21:46;101366.31;;;1.63;68.03
36664;BME280;53333;51.976;20.144;2022-11-30T04:24:20;101363.69;;;1.65;68.09
36664;BME280;53333;51.976;20.144;2022-11-30T04:26:53;101367.19;;;1.65;68.05
36664;BME280;53333;51.976;20.144;2022-11-30T04:29:27;101368.03;;;1.62;68.08
36664;BME280;53333;51.976;20.144;2022-11-30T04:32:00;101367.19;;;1.62;68.11
36664;BME280;53333;51.976;20.144;2022-11-30T04:34:35;101364.53;;;1.60;67.93
36664;BME280;53333;51.976;20.144;2022-11-30T04:37:09;101368.03;;;1.59;68.03
36664;BME280;53333;51.976;20.144;2022-11-30T04:39:42;101365.38;;;1.58;67.89
36664;BME280;53333;51.976;20.144;2022-11-30T04:42:16;101369.78;;;1.57;67.93
36664;BME280;53333;51.976;20.144;2022-11-30T04:44:50;101367.13;;;1.57;67.89
36664;BME280;53333;51.976;20.144;2022-11-30T04:47:23;101365.41;;;1.61;67.77
36664;BME280;53333;51.976;20.144;2022-11-30T04:49:58;101370.66;;;1.59;68.05
36664;BME280;53333;51.976;20.144;2022-11-30T04:52:32;101369.78;;;1.57;67.97
36664;BME280;53333;51.976;20.144;2022-11-30T04:55:06;101368.00;;;1.56;67.69
36664;BME280;53333;51.976;20.144;2022-11-30T04:57:40;101375.91;;;1.55;67.89
36664;BME280;53333;51.976;20.144;2022-11-30T05:00:15;101375.91;;;1.52;67.86
36664;BME280;53333;51.976;20.144;2022-11-30T05:02:49;101374.13;;;1.51;67.83
36664;BME280;53333;51.976;20.144;2022-11-30T05:05:25;101376.72;;;1.48;67.98
36664;BME280;53333;51.976;20.144;2022-11-30T05:07:59;101388.13;;;1.48;67.72
36664;BME280;53333;51.976;20.144;2022-11-30T05:10:32;101380.22;;;1.45;67.87
36664;BME280;53333;51.976;20.144;2022-11-30T05:13:06;101389.00;;;1.45;67.66
36664;BME280;53333;51.976;20.144;2022-11-30T05:15:39;101387.22;;;1.43;67.77
36664;BME280;53333;51.976;20.144;2022-11-30T05:18:13;101391.63;;;1.42;67.80
36664;BME280;53333;51.976;20.144;2022-11-30T05:20:50;101387.19;;;1.38;67.71
36664;BME280;53333;51.976;20.144;2022-11-30T05:23:23;101385.41;;;1.36;67.73
36664;BME280;53333;51.976;20.144;2022-11-30T05:25:58;101385.41;;;1.36;67.90
36664;BME280;53333;51.976;20.144;2022-11-30T05:28:33;101386.28;;;1.36;67.76
36664;BME280;53333;51.976;20.144;2022-11-30T05:31:06;101390.69;;;1.37;67.69
36664;BME280;53333;51.976;20.144;2022-11-30T05:33:40;101390.69;;;1.37;67.76
36664;BME280;53333;51.976;20.144;2022-11-30T05:36:15;101396.84;;;1.38;67.70
36664;BME280;53333;51.976;20.144;2022-11-30T05:38:48;101397.72;;;1.40;67.63
36664;BME280;53333;51.976;20.144;2022-11-30T05:41:22;101402.13;;;1.41;67.64
36664;BME280;53333;51.976;20.144;2022-11-30T05:43:55;101400.38;;;1.43;67.71
36664;BME280;53333;51.976;20.144;2022-11-30T05:46:29;101407.47;;;1.47;67.68
36664;BME280;53333;51.976;20.144;2022-11-30T05:49:03;101405.72;;;1.51;67.54
36664;BME280;53333;51.976;20.144;2022-11-30T05:51:38;101400.47;;;1.54;67.45
36664;BME280;53333;51.976;20.144;2022-11-30T05:54:12;101405.78;;;1.57;67.39
36664;BME280;53333;51.976;20.144;2022-11-30T05:56:46;101404.03;;;1.59;67.43
36664;BME280;53333;51.976;20.144;2022-11-30T05:59:25;101404.88;;;1.58;67.50
36664;BME280;53333;51.976;20.144;2022-11-30T06:01:59;101396.09;;;1.56;67.47
36664;BME280;53333;51.976;20.144;2022-11-30T06:04:33;101395.19;;;1.52;67.49
36664;BME280;53333;51.976;20.144;2022-11-30T06:07:08;101397.81;;;1.49;67.52
36664;BME280;53333;51.976;20.144;2022-11-30T06:09:43;101397.78;;;1.48;67.39
36664;BME280;53333;51.976;20.144;2022-11-30T06:12:16;101406.56;;;1.47;67.37
36664;BME280;53333;51.976;20.144;2022-11-30T06:14:50;101411.78;;;1.43;67.32
36664;BME280;53333;51.976;20.144;2022-11-30T06:17:23;101410.03;;;1.41;67.29
36664;BME280;53333;51.976;20.144;2022-11-30T06:19:57;101409.13;;;1.40;67.25
36664;BME280;53333;51.976;20.144;2022-11-30T06:22:31;101410.88;;;1.38;67.52
36664;BME280;53333;51.976;20.144;2022-11-30T06:25:06;101410.88;;;1.38;67.45
36664;BME280;53333;51.976;20.144;2022-11-30T06:27:39;101413.53;;;1.41;67.27
36664;BME280;53333;51.976;20.144;2022-11-30T06:30:14;101413.53;;;1.41;67.37
36664;BME280;53333;51.976;20.144;2022-11-30T06:32:49;101410.91;;;1.43;67.42
36664;BME280;53333;51.976;20.144;2022-11-30T06:35:25;101410.91;;;1.43;67.11
36664;BME280;53333;51.976;20.144;2022-11-30T06:38:00;101412.69;;;1.44;67.24
36664;BME280;53333;51.976;20.144;2022-11-30T06:40:34;101418.84;;;1.46;67.14
36664;BME280;53333;51.976;20.144;2022-11-30T06:43:07;101422.34;;;1.47;67.11
36664;BME280;53333;51.976;20.144;2022-11-30T06:45:42;101424.13;;;1.46;67.18
36664;BME280;53333;51.976;20.144;2022-11-30T06:48:16;101420.63;;;1.45;67.22
36664;BME280;53333;51.976;20.144;2022-11-30T06:50:49;101433.78;;;1.45;66.94
36664;BME280;53333;51.976;20.144;2022-11-30T06:53:24;101429.41;;;1.48;67.09
36664;BME280;53333;51.976;20.144;2022-11-30T06:55:58;101439.94;;;1.48;67.29
36664;BME280;53333;51.976;20.144;2022-11-30T06:58:39;101444.34;;;1.49;67.01
36664;BME280;53333;51.976;20.144;2022-11-30T07:01:13;101434.69;;;1.49;66.88
36664;BME280;53333;51.976;20.144;2022-11-30T07:03:47;101438.16;;;1.48;66.96
36664;BME280;53333;51.976;20.144;2022-11-30T07:06:21;101442.59;;;1.49;66.88
36664;BME280;53333;51.976;20.144;2022-11-30T07:08:56;101439.97;;;1.52;67.04
36664;BME280;53333;51.976;20.144;2022-11-30T07:11:30;101448.75;;;1.54;66.74
36664;BME280;53333;51.976;20.144;2022-11-30T07:14:04;101444.38;;;1.53;66.90
36664;BME280;53333;51.976;20.144;2022-11-30T07:16:38;101440.84;;;1.53;66.63
36664;BME280;53333;51.976;20.144;2022-11-30T07:19:33;101445.38;;;1.68;66.65
36664;BME280;53333;51.976;20.144;2022-11-30T07:22:25;101455.91;;;1.66;66.50
36664;BME280;53333;51.976;20.144;2022-11-30T07:25:18;101450.63;;;1.65;66.65
36664;BME280;53333;51.976;20.144;2022-11-30T07:28:08;101445.34;;;1.63;66.65
36664;BME280;53333;51.976;20.144;2022-11-30T07:30:42;101447.09;;;1.66;66.85
36664;BME280;53333;51.976;20.144;2022-11-30T07:33:15;101450.66;;;1.66;66.63
36664;BME280;53333;51.976;20.144;2022-11-30T07:35:49;101447.09;;;1.66;66.72
36664;BME280;53333;51.976;20.144;2022-11-30T07:38:24;101451.53;;;1.68;66.44
36664;BME280;53333;51.976;20.144;2022-11-30T07:40:59;101452.41;;;1.70;66.47
36664;BME280;53333;51.976;20.144;2022-11-30T07:43:33;101455.94;;;1.74;66.65
36664;BME280;53333;51.976;20.144;2022-11-30T07:46:06;101456.88;;;1.77;66.42
36664;BME280;53333;51.976;20.144;2022-11-30T07:48:43;101462.19;;;1.82;66.34
36664;BME280;53333;51.976;20.144;2022-11-30T07:51:17;101456.94;;;1.87;66.33
36664;BME280;53333;51.976;20.144;2022-11-30T07:53:53;101455.22;;;1.92;66.23
36664;BME280;53333;51.976;20.144;2022-11-30T07:56:28;101462.28;;;1.99;66.04
36664;BME280;53333;51.976;20.144;2022-11-30T07:59:04;101457.94;;;2.06;65.99
36664;BME280;53333;51.976;20.144;2022-11-30T08:01:37;101455.31;;;2.07;65.76
36664;BME280;53333;51.976;20.144;2022-11-30T08:04:11;101455.28;;;2.04;65.81
36664;BME280;53333;51.976;20.144;2022-11-30T08:06:45;101455.28;;;2.04;65.81
36664;BME280;53333;51.976;20.144;2022-11-30T08:09:18;101456.22;;;2.06;65.69
36664;BME280;53333;51.976;20.144;2022-11-30T08:11:53;101457.97;;;2.09;65.69
36664;BME280;53333;51.976;20.144;2022-11-30T08:14:27;101449.22;;;2.11;65.58
36664;BME280;53333;51.976;20.144;2022-11-30T08:17:03;101451.88;;;2.16;65.56
36664;BME280;53333;51.976;20.144;2022-11-30T08:19:38;101465.94;;;2.20;65.38
36664;BME280;53333;51.976;20.144;2022-11-30T08:22:15;101458.94;;;2.22;65.31
36664;BME280;53333;51.976;20.144;2022-11-30T08:24:50;101458.94;;;2.22;65.30
36664;BME280;53333;51.976;20.144;2022-11-30T08:27:31;101463.34;;;2.24;65.24
36664;BME280;53333;51.976;20.144;2022-11-30T08:30:08;101456.31;;;2.23;65.16
36664;BME280;53333;51.976;20.144;2022-11-30T08:32:42;101457.22;;;2.25;65.22
36664;BME280;53333;51.976;20.144;2022-11-30T08:35:15;101464.25;;;2.28;65.09
36664;BME280;53333;51.976;20.144;2022-11-30T08:38:06;101464.25;;;2.31;65.07
36664;BME280;53333;51.976;20.144;2022-11-30T08:40:39;101462.53;;;2.30;64.89
36664;BME280;53333;51.976;20.144;2022-11-30T08:43:14;101452.88;;;2.33;64.90
36664;BME280;53333;51.976;20.144;2022-11-30T08:45:47;101459.91;;;2.41;64.80
36664;BME280;53333;51.976;20.144;2022-11-30T08:48:27;101468.75;;;2.46;64.57
36664;BME280;53333;51.976;20.144;2022-11-30T08:51:01;101455.59;;;2.47;64.55
36664;BME280;53333;51.976;20.144;2022-11-30T08:53:35;101462.66;;;2.61;64.52
36664;BME280;53333;51.976;20.144;2022-11-30T08:56:14;101452.06;;;2.51;64.22
36664;BME280;53333;51.976;20.144;2022-11-30T08:58:50;101464.38;;;2.51;64.47
36664;BME280;53333;51.976;20.144;2022-11-30T09:01:35;101460.84;;;2.50;64.27
36664;BME280;53333;51.976;20.144;2022-11-30T09:04:09;101457.34;;;2.51;64.21
36664;BME280;53333;51.976;20.144;2022-11-30T09:06:42;101452.09;;;2.56;64.20
36664;BME280;53333;51.976;20.144;2022-11-30T09:09:15;101452.13;;;2.61;64.17
36664;BME280;53333;51.976;20.144;2022-11-30T09:11:51;101460.06;;;2.65;64.13
36664;BME280;53333;51.976;20.144;2022-11-30T09:14:26;101463.59;;;2.70;64.06
36664;BME280;53333;51.976;20.144;2022-11-30T09:17:00;101461.84;;;2.74;63.97
36664;BME280;53333;51.976;20.144;2022-11-30T09:19:36;101458.34;;;2.78;63.89
36664;BME280;53333;51.976;20.144;2022-11-30T09:22:09;101459.22;;;2.82;63.67
36664;BME280;53333;51.976;20.144;2022-11-30T09:24:43;101468.03;;;2.87;63.69
36664;BME280;53333;51.976;20.144;2022-11-30T09:27:16;101462.81;;;2.98;63.71
36664;BME280;53333;51.976;20.144;2022-11-30T09:29:56;101473.31;;;2.88;63.58
36664;BME280;53333;51.976;20.144;2022-11-30T09:32:30;101463.69;;;2.89;63.68
36664;BME280;53333;51.976;20.144;2022-11-30T09:35:05;101457.50;;;2.90;63.57
36664;BME280;53333;51.976;20.144;2022-11-30T09:37:43;101451.34;;;2.91;63.33
36664;BME280;53333;51.976;20.144;2022-11-30T09:40:34;101454.03;;;2.99;63.48
36664;BME280;53333;51.976;20.144;2022-11-30T09:43:18;101454.88;;;2.98;63.46
36664;BME280;53333;51.976;20.144;2022-11-30T09:46:02;101461.94;;;2.94;63.42
36664;BME280;53333;51.976;20.144;2022-11-30T09:48:58;101460.16;;;2.95;63.42
36664;BME280;53333;51.976;20.144;2022-11-30T09:51:41;101458.41;;;2.90;63.24
36664;BME280;53333;51.976;20.144;2022-11-30T09:54:18;101456.63;;;2.89;63.31
36664;BME280;53333;51.976;20.144;2022-11-30T09:56:53;101452.22;;;2.88;63.23
36664;BME280;53333;51.976;20.144;2022-11-30T09:59:30;101454.00;;;2.91;63.28
36664;BME280;53333;51.976;20.144;2022-11-30T10:02:14;101459.28;;;2.93;63.24
36664;BME280;53333;51.976;20.144;2022-11-30T10:04:50;101468.97;;;3.00;63.27
36664;BME280;53333;51.976;20.144;2022-11-30T10:07:47;101460.13;;;2.88;63.29
36664;BME280;53333;51.976;20.144;2022-11-30T10:10:33;101457.47;;;2.85;63.05
36664;BME280;53333;51.976;20.144;2022-11-30T10:13:24;101461.03;;;2.87;63.25
36664;BME280;53333;51.976;20.144;2022-11-30T10:16:09;101460.13;;;2.87;63.24
36664;BME280;53333;51.976;20.144;2022-11-30T10:18:53;101461.03;;;2.87;63.19
36664;BME280;53333;51.976;20.144;2022-11-30T10:21:42;101468.94;;;2.87;63.13
36664;BME280;53333;51.976;20.144;2022-11-30T10:24:35;101467.19;;;2.89;63.30
36664;BME280;53333;51.976;20.144;2022-11-30T10:27:16;101458.38;;;2.86;63.05
36664;BME280;53333;51.976;20.144;2022-11-30T10:29:50;101455.75;;;2.84;63.21
36664;BME280;53333;51.976;20.144;2022-11-30T10:32:27;101458.38;;;2.84;63.09
36664;BME280;53333;51.976;20.144;2022-11-30T10:35:19;101455.75;;;2.90;63.23
36664;BME280;53333;51.976;20.144;2022-11-30T10:37:54;101453.13;;;2.89;63.14
36664;BME280;53333;51.976;20.144;2022-11-30T10:40:35;101454.00;;;2.89;63.08
36664;BME280;53333;51.976;20.144;2022-11-30T10:43:16;101455.75;;;2.89;63.14
36664;BME280;53333;51.976;20.144;2022-11-30T10:45:51;101459.25;;;2.88;63.02
36664;BME280;53333;51.976;20.144;2022-11-30T10:48:26;101462.81;;;3.01;63.08
36664;BME280;53333;51.976;20.144;2022-11-30T10:51:03;101465.44;;;2.95;63.15
36664;BME280;53333;51.976;20.144;2022-11-30T10:53:36;101464.56;;;2.94;62.96
36664;BME280;53333;51.976;20.144;2022-11-30T10:56:12;101457.50;;;2.93;63.08
36664;BME280;53333;51.976;20.144;2022-11-30T10:58:52;101457.53;;;2.98;63.13
36664;BME280;53333;51.976;20.144;2022-11-30T11:01:32;101459.31;;;3.02;62.98
36664;BME280;53333;51.976;20.144;2022-11-30T11:04:13;101458.44;;;3.04;62.97
36664;BME280;53333;51.976;20.144;2022-11-30T11:06:51;101460.25;;;3.18;62.86
36664;BME280;53333;51.976;20.144;2022-11-30T11:09:34;101454.94;;;3.08;62.75
36664;BME280;53333;51.976;20.144;2022-11-30T11:12:14;101447.00;;;3.04;62.75
36664;BME280;53333;51.976;20.144;2022-11-30T11:15:06;101449.66;;;3.13;62.77
36664;BME280;53333;51.976;20.144;2022-11-30T11:17:40;101443.50;;;3.09;62.92
36664;BME280;53333;51.976;20.144;2022-11-30T11:20:32;101445.25;;;3.12;62.65
36664;BME280;53333;51.976;20.144;2022-11-30T11:23:20;101446.13;;;3.13;62.58
36664;BME280;53333;51.976;20.144;2022-11-30T11:25:54;101447.00;;;3.08;62.79
36664;BME280;53333;51.976;20.144;2022-11-30T11:28:29;101448.78;;;3.08;62.73
36664;BME280;53333;51.976;20.144;2022-11-30T11:31:16;101449.66;;;3.10;62.52
36664;BME280;53333;51.976;20.144;2022-11-30T11:33:52;101446.13;;;3.08;62.75
36664;BME280;53333;51.976;20.144;2022-11-30T11:36:27;101442.59;;;3.09;62.72
36664;BME280;53333;51.976;20.144;2022-11-30T11:39:24;101446.13;;;3.14;62.70
36664;BME280;53333;51.976;20.144;2022-11-30T11:41:58;101449.66;;;3.10;62.66
36664;BME280;53333;51.976;20.144;2022-11-30T11:44:32;101448.75;;;3.11;62.54
36664;BME280;53333;51.976;20.144;2022-11-30T11:47:06;101452.28;;;3.10;62.65
36664;BME280;53333;51.976;20.144;2022-11-30T11:50:05;101450.53;;;3.11;62.50
36664;BME280;53333;51.976;20.144;2022-11-30T11:52:40;101451.41;;;3.08;62.35
36664;BME280;53333;51.976;20.144;2022-11-30T11:55:17;101447.88;;;3.06;62.64
36664;BME280;53333;51.976;20.144;2022-11-30T11:57:55;101442.56;;;3.03;62.69
36664;BME280;53333;51.976;20.144;2022-11-30T12:00:34;101442.56;;;3.03;62.48
36664;BME280;53333;51.976;20.144;2022-11-30T12:03:16;101444.34;;;3.02;62.66
36664;BME280;53333;51.976;20.144;2022-11-30T12:05:59;101448.75;;;3.02;62.60
36664;BME280;53333;51.976;20.144;2022-11-30T12:08:40;101444.34;;;3.01;62.48
36664;BME280;53333;51.976;20.144;2022-11-30T12:11:21;101439.06;;;2.98;62.56
36664;BME280;53333;51.976;20.144;2022-11-30T12:13:56;101438.16;;;2.94;62.68
36664;BME280;53333;51.976;20.144;2022-11-30T12:16:36;101441.69;;;2.95;62.75
36664;BME280;53333;51.976;20.144;2022-11-30T12:19:15;101439.94;;;2.92;62.73
36664;BME280;53333;51.976;20.144;2022-11-30T12:21:58;101445.22;;;2.92;62.73
36664;BME280;53333;51.976;20.144;2022-11-30T12:24:50;101442.56;;;2.95;62.85
36664;BME280;53333;51.976;20.144;2022-11-30T12:27:43;101451.38;;;2.96;62.81
36664;BME280;53333;51.976;20.144;2022-11-30T12:30:31;101452.25;;;2.96;62.85
36664;BME280;53333;51.976;20.144;2022-11-30T12:33:11;101450.47;;;2.95;62.86
36664;BME280;53333;51.976;20.144;2022-11-30T12:35:58;101448.72;;;2.96;62.79
36664;BME280;53333;51.976;20.144;2022-11-30T12:38:40;101455.78;;;2.92;62.72
36664;BME280;53333;51.976;20.144;2022-11-30T12:41:30;101453.13;;;2.92;62.71
36664;BME280;53333;51.976;20.144;2022-11-30T12:44:27;101465.41;;;2.90;62.84
36664;BME280;53333;51.976;20.144;2022-11-30T12:47:24;101455.75;;;2.87;63.10
36664;BME280;53333;51.976;20.144;2022-11-30T12:50:30;101466.31;;;2.89;62.79
36664;BME280;53333;51.976;20.144;2022-11-30T12:53:08;101461.91;;;2.91;62.76
36664;BME280;53333;51.976;20.144;2022-11-30T12:55:53;101468.00;;;2.79;63.01
36664;BME280;53333;51.976;20.144;2022-11-30T12:58:40;101473.31;;;2.78;63.35
36664;BME280;53333;51.976;20.144;2022-11-30T13:01:34;101475.03;;;2.77;63.40
36664;BME280;53333;51.976;20.144;2022-11-30T13:04:16;101470.66;;;2.75;63.44
36664;BME280;53333;51.976;20.144;2022-11-30T13:06:54;101474.16;;;2.70;63.36
36664;BME280;53333;51.976;20.144;2022-11-30T13:09:35;101474.13;;;2.67;63.57
36664;BME280;53333;51.976;20.144;2022-11-30T13:12:26;101475.91;;;2.67;63.61
36664;BME280;53333;51.976;20.144;2022-11-30T13:15:12;101466.22;;;2.66;63.82
36664;BME280;53333;51.976;20.144;2022-11-30T13:17:58;101471.50;;;2.67;63.74
36664;BME280;53333;51.976;20.144;2022-11-30T13:20:38;101472.38;;;2.68;63.65
36664;BME280;53333;51.976;20.144;2022-11-30T13:23:20;101475.91;;;2.68;63.92
36664;BME280;53333;51.976;20.144;2022-11-30T13:26:11;101472.38;;;2.69;63.97
36664;BME280;53333;51.976;20.144;2022-11-30T13:29:04;101467.09;;;2.68;64.05
36664;BME280;53333;51.976;20.144;2022-11-30T13:31:56;101464.44;;;2.68;63.74
36664;BME280;53333;51.976;20.144;2022-11-30T13:34:37;101460.94;;;2.67;63.90
36664;BME280;53333;51.976;20.144;2022-11-30T13:37:12;101464.44;;;2.68;64.14
36664;BME280;53333;51.976;20.144;2022-11-30T13:39:56;101467.06;;;2.66;63.97
36664;BME280;53333;51.976;20.144;2022-11-30T13:42:34;101459.19;;;2.63;64.11
36664;BME280;53333;51.976;20.144;2022-11-30T13:45:18;101461.81;;;2.63;64.16
36664;BME280;53333;51.976;20.144;2022-11-30T13:47:58;101463.56;;;2.63;64.13
36664;BME280;53333;51.976;20.144;2022-11-30T13:50:36;101467.97;;;2.64;64.20
36664;BME280;53333;51.976;20.144;2022-11-30T13:53:28;101470.63;;;2.70;64.25
36664;BME280;53333;51.976;20.144;2022-11-30T13:59:31;101471.53;;;2.75;64.09
36664;BME280;53333;51.976;20.144;2022-11-30T14:05:38;101478.56;;;2.70;64.17
36664;BME280;53333;51.976;20.144;2022-11-30T14:08:31;101484.69;;;2.67;64.16